Etusivu
METAR-TAF:

METAR-TAF

Lentoasemat :

Visby, Gotlanti, Ruotsi

Visbyn lentoasema

Leveyspiiri: 57-40N, Pituuspiiri: 018-21E, korkeus merenpinnasta: 51 m

Tämänhetkinen sää

Tämä raportti tehtiin 39 minuuttia sitten, kello 23.20 UTC
Tuuli 10 kn idästä/koillisesta
Lämpötila -2°C
Kosteus 80%
Ilmanpaine 1026 hPa
Näkyvyys 10 km tai enemmän

METAR: ESSV 192320Z AUTO 07010KT 9999 BKN016/// BKN022/// OVC046/// M02/M05 Q1026

Aika: 00:59 (23:59 UTC)

Sääennuste

Tämä raportti tehtiin 3 tuntia ja 29 minuuttia sitten, kello 20.30 UTC
Ennuste voimassa 19. päivästä klo 21 UTC - 19. päivään klo 23 UTC
Tuuli 9 kn idästä/koillisesta
Näkyvyys: 9000 m
Hajonneita pilviä 1800 ft:n korkeudessa
heikkoa lumisadetta
Todennäköisyys 40%
19. päivästä klo 21 UTC - 19. päivään klo 23 UTC
Näkyvyys: 4000 m
Hajonneita pilviä 1000 ft:n korkeudessa

TAF: ESSV 192030Z 1921/1923 07009KT 9000 -SN BKN018 PROB40 1921/1923 4000 BKN010

Säähavainnot ja -ennusteet yli 4000 lentoasemalta (METAR- ja TAF-raportit).

Käytössä olevat sääasemat on merkitty karttaan keltaisilla ja punaisilla pisteillä.

Aseta hiiri pisteen päälle nähdäksesi sääaseman nimen.

Klikkaa sitten nähdäksesi säähavainnot ja -ennusteet.

Kartan vaihtaminen: klikkaa mustalla rastilla varustettuja vihreitä pisteitä, niin voit zoomata sisään; viivalla varustettua vihreää pistettä, niin voit zoomata ulos tai vihreitä nuolia, niin pääset viereisille kartoille.


METAR-TAF: